www.cux-wetter.de
Wetterdaten: Woche 07.05.12 - 13.05.12 (KW19)
Datum Zeit Temp. A. Feuchte A. Luftdruck Regen Wind Richtung Sonnenschein Solar Taupunkt Windchill Windben
07.05.2012 00:00 8,6 C 64 % 1015,3 hPa 0,0 l/m 12,6 km/h (2 Bft) O-NO 0,00 h 0 W/m 2,3 C 4,6 C 12,6 km/h (2 Bft)
07.05.2012 01:00 8,7 C 66 % 1015,5 hPa 0,0 l/m 12,6 km/h (3 Bft) NO 0,00 h 0 W/m 2,7 C 4,7 C 12,6 km/h (3 Bft)
07.05.2012 02:00 8,6 C 65 % 1015,5 hPa 0,0 l/m 8,7 km/h (2 Bft) N-NO 0,00 h 0 W/m 2,4 C 7,0 C 8,7 km/h (2 Bft)
07.05.2012 03:00 8,2 C 68 % 1015,5 hPa 0,0 l/m 7,7 km/h (2 Bft) O 0,00 h 0 W/m 2,7 C 6,3 C 7,7 km/h (2 Bft)
07.05.2012 04:00 7,8 C 71 % 1015,5 hPa 0,0 l/m 7,7 km/h (2 Bft) SO 0,00 h 0 W/m 2,9 C 6,7 C 7,7 km/h (2 Bft)
07.05.2012 05:00 7,6 C 73 % 1016,5 hPa 0,0 l/m 7,1 km/h (2 Bft) O-SO 0,00 h 0 W/m 3,1 C 6,5 C 7,1 km/h (2 Bft)
07.05.2012 06:00 7,5 C 76 % 1016,5 hPa 0,3 l/m 5,3 km/h (1 Bft) SO 0,00 h 0 W/m 3,5 C 7,5 C 5,3 km/h (1 Bft)
07.05.2012 07:00 7,5 C 79 % 1016,5 hPa 0,0 l/m 6,7 km/h (2 Bft) O-SO 0,00 h 0 W/m 4,0 C 6,8 C 6,7 km/h (2 Bft)
07.05.2012 08:00 7,6 C 79 % 1017,5 hPa 0,0 l/m 1,4 km/h (1 Bft) N 0,00 h 0 W/m 4,2 C 7,6 C 1,4 km/h (1 Bft)
07.05.2012 09:00 7,7 C 80 % 1017,5 hPa 0,3 l/m 2,8 km/h (1 Bft) O 0,00 h 0 W/m 4,5 C 7,7 C 2,8 km/h (1 Bft)
07.05.2012 10:00 7,8 C 80 % 1018,0 hPa 0,0 l/m 5,3 km/h (1 Bft) O 0,00 h 0 W/m 4,5 C 7,4 C 5,3 km/h (1 Bft)
07.05.2012 11:00 8,6 C 79 % 1018,5 hPa 0,0 l/m 5,3 km/h (1 Bft) O-SO 0,00 h 0 W/m 5,2 C 8,0 C 5,3 km/h (1 Bft)
07.05.2012 12:00 9,7 C 76 % 1018,5 hPa 0,0 l/m 11,1 km/h (2 Bft) SO 0,00 h 0 W/m 5,6 C 6,7 C 11,1 km/h (2 Bft)
07.05.2012 13:00 10,2 C 72 % 1018,5 hPa 0,0 l/m 7,9 km/h (2 Bft) O-NO 0,00 h 0 W/m 5,4 C 9,1 C 7,9 km/h (2 Bft)
07.05.2012 14:00 9,6 C 72 % 1018,5 hPa 0,0 l/m 4,3 km/h (1 Bft) O 0,00 h 0 W/m 4,7 C 9,4 C 4,3 km/h (1 Bft)
07.05.2012 15:00 9,3 C 73 % 1018,5 hPa 0,0 l/m 3,4 km/h (1 Bft) SO 0,00 h 0 W/m 4,6 C 9,3 C 3,4 km/h (1 Bft)
07.05.2012 16:00 9,6 C 71 % 1018,5 hPa 0,0 l/m 3,8 km/h (1 Bft) O-SO 0,00 h 0 W/m 4,6 C 9,5 C 3,8 km/h (1 Bft)
07.05.2012 17:00 9,5 C 72 % 1018,5 hPa 0,0 l/m 4,0 km/h (1 Bft) O-NO 0,00 h 0 W/m 4,7 C 9,5 C 4,0 km/h (1 Bft)
07.05.2012 18:00 10,2 C 70 % 1018,5 hPa 0,0 l/m 5,4 km/h (1 Bft) SO 0,00 h 0 W/m 5,0 C 9,9 C 5,4 km/h (1 Bft)
07.05.2012 19:00 9,8 C 70 % 1018,5 hPa 0,0 l/m 5,4 km/h (2 Bft) O 0,00 h 0 W/m 4,6 C 9,4 C 5,4 km/h (2 Bft)
07.05.2012 20:00 9,0 C 73 % 1018,5 hPa 0,0 l/m 3,7 km/h (1 Bft) O 0,00 h 0 W/m 4,3 C 9,0 C 3,7 km/h (1 Bft)
07.05.2012 21:00 7,8 C 75 % 1018,5 hPa 0,0 l/m 0,4 km/h (0 Bft) N 0,00 h 0 W/m 3,7 C 7,8 C 0,4 km/h (0 Bft)
07.05.2012 22:00 7,0 C 77 % 1018,5 hPa 0,0 l/m 0,8 km/h (0 Bft) O-SO 0,00 h 0 W/m 3,3 C 7,0 C 0,8 km/h (0 Bft)
07.05.2012 23:00 6,7 C 79 % 1018,5 hPa 0,0 l/m 0,6 km/h (0 Bft) S 0,00 h 0 W/m 3,2 C 6,7 C 0,6 km/h (0 Bft)
08.05.2012 00:00 6,3 C 80 % 1018,0 hPa 0,0 l/m 4,4 km/h (1 Bft) S 0,00 h 0 W/m 3,1 C 6,3 C 4,4 km/h (1 Bft)
08.05.2012 01:00 6,0 C 81 % 1017,5 hPa 0,0 l/m 5,7 km/h (2 Bft) S 0,00 h 0 W/m 2,9 C 5,5 C 5,7 km/h (2 Bft)
08.05.2012 02:00 5,9 C 83 % 1017,5 hPa 0,0 l/m 8,4 km/h (2 Bft) S 0,00 h 0 W/m 3,2 C 4,4 C 8,4 km/h (2 Bft)
08.05.2012 03:00 6,0 C 84 % 1016,5 hPa 0,0 l/m 9,1 km/h (2 Bft) S-SO 0,00 h 0 W/m 3,5 C 3,8 C 9,1 km/h (2 Bft)
08.05.2012 04:00 5,8 C 84 % 1016,5 hPa 0,0 l/m 8,2 km/h (2 Bft) S 0,00 h 0 W/m 3,3 C 4,3 C 8,2 km/h (2 Bft)
08.05.2012 05:00 5,7 C 84 % 1015,5 hPa 0,0 l/m 10,4 km/h (2 Bft) S 0,00 h 0 W/m 3,2 C 2,6 C 10,4 km/h (2 Bft)
08.05.2012 06:00 5,5 C 85 % 1015,0 hPa 0,0 l/m 9,6 km/h (2 Bft) S 0,00 h 0 W/m 3,2 C 3,0 C 9,6 km/h (2 Bft)
08.05.2012 07:00 6,5 C 86 % 1014,5 hPa 0,0 l/m 12,5 km/h (2 Bft) S 0,00 h 0 W/m 4,2 C 2,3 C 12,5 km/h (2 Bft)
08.05.2012 08:00 8,0 C 86 % 1014,3 hPa 0,0 l/m 16,8 km/h (3 Bft) S 0,00 h 0 W/m 5,7 C 2,0 C 16,8 km/h (3 Bft)
08.05.2012 09:00 10,1 C 81 % 1013,5 hPa 0,0 l/m 20,4 km/h (4 Bft) S 0,00 h 0 W/m 6,9 C 3,3 C 20,4 km/h (4 Bft)
08.05.2012 10:00 12,1 C 78 % 1012,5 hPa 0,0 l/m 23,4 km/h (4 Bft) S 0,00 h 0 W/m 8,4 C 5,1 C 23,4 km/h (4 Bft)
08.05.2012 11:00 14,8 C 69 % 1012,0 hPa 0,0 l/m 24,8 km/h (4 Bft) S 0,00 h 0 W/m 9,2 C 8,4 C 24,8 km/h (4 Bft)
08.05.2012 12:00 16,3 C 65 % 1011,5 hPa 0,0 l/m 20,1 km/h (4 Bft) S 0,00 h 0 W/m 9,7 C 11,4 C 20,1 km/h (4 Bft)
08.05.2012 13:00 17,0 C 62 % 1011,0 hPa 0,0 l/m 20,2 km/h (4 Bft) S-SW 0,00 h 0 W/m 9,6 C 12,3 C 20,2 km/h (4 Bft)
08.05.2012 14:00 19,4 C 53 % 1010,5 hPa 0,0 l/m 24,5 km/h (4 Bft) S-SW 0,00 h 0 W/m 9,5 C 14,6 C 24,5 km/h (4 Bft)
08.05.2012 15:00 18,7 C 53 % 1009,5 hPa 0,0 l/m 22,7 km/h (4 Bft) SW 0,00 h 0 W/m 8,8 C 14,1 C 22,7 km/h (4 Bft)
08.05.2012 16:00 18,6 C 53 % 1009,5 hPa 0,0 l/m 20,7 km/h (4 Bft) S-SW 0,00 h 0 W/m 8,7 C 14,3 C 20,7 km/h (4 Bft)
08.05.2012 17:00 18,1 C 55 % 1008,8 hPa 0,0 l/m 18,4 km/h (3 Bft) SW 0,00 h 0 W/m 8,9 C 14,1 C 18,4 km/h (3 Bft)
08.05.2012 18:00 17,0 C 61 % 1008,5 hPa 0,0 l/m 9,3 km/h (2 Bft) S-SW 0,00 h 0 W/m 9,3 C 15,7 C 9,3 km/h (2 Bft)
08.05.2012 19:00 16,6 C 62 % 1008,5 hPa 0,0 l/m 8,3 km/h (2 Bft) S-SO 0,00 h 0 W/m 9,3 C 15,7 C 8,3 km/h (2 Bft)
08.05.2012 20:00 15,9 C 66 % 1008,5 hPa 0,3 l/m 10,5 km/h (2 Bft) W-SW 0,00 h 0 W/m 9,6 C 14,0 C 10,5 km/h (2 Bft)
08.05.2012 21:00 15,0 C 71 % 1009,3 hPa 0,0 l/m 9,9 km/h (2 Bft) NW 0,00 h 0 W/m 9,8 C 13,2 C 9,9 km/h (2 Bft)
08.05.2012 22:00 13,9 C 76 % 1008,5 hPa 0,0 l/m 1,4 km/h (1 Bft) O-NO 0,00 h 0 W/m 9,8 C 13,9 C 1,4 km/h (1 Bft)
08.05.2012 23:00 13,3 C 79 % 1008,0 hPa 0,0 l/m 4,1 km/h (1 Bft) O 0,00 h 0 W/m 9,8 C 13,3 C 4,1 km/h (1 Bft)
09.05.2012 00:00 13,1 C 82 % 1008,3 hPa 0,0 l/m 7,2 km/h (2 Bft) O 0,00 h 0 W/m 10,1 C 11,8 C 7,2 km/h (2 Bft)
09.05.2012 01:00 12,8 C 84 % 1007,5 hPa 0,0 l/m 2,0 km/h (1 Bft) N 0,00 h 0 W/m 10,1 C 12,6 C 2,0 km/h (1 Bft)
09.05.2012 02:00 12,8 C 84 % 1007,5 hPa 0,0 l/m 0,1 km/h (0 Bft) N 0,00 h 0 W/m 10,2 C 12,8 C 0,1 km/h (0 Bft)
09.05.2012 03:00 12,8 C 85 % 1007,5 hPa 0,0 l/m 0,0 km/h (0 Bft) SO 0,00 h 0 W/m 10,3 C 12,8 C 0,0 km/h (0 Bft)
09.05.2012 04:00 12,5 C 86 % 1007,5 hPa 0,0 l/m 3,9 km/h (1 Bft) SO 0,00 h 0 W/m 10,2 C 12,5 C 3,9 km/h (1 Bft)
09.05.2012 05:00 12,6 C 86 % 1007,5 hPa 0,0 l/m 10,9 km/h (2 Bft) S-SW 0,00 h 0 W/m 10,4 C 10,1 C 10,9 km/h (2 Bft)
09.05.2012 06:00 13,4 C 85 % 1007,5 hPa 0,0 l/m 14,8 km/h (3 Bft) SW 0,00 h 0 W/m 10,9 C 9,4 C 14,8 km/h (3 Bft)
09.05.2012 07:00 14,5 C 84 % 1007,5 hPa 0,0 l/m 15,8 km/h (3 Bft) W-SW 0,00 h 0 W/m 11,8 C 10,4 C 15,8 km/h (3 Bft)
09.05.2012 08:00 14,4 C 88 % 1008,3 hPa 2,4 l/m 21,5 km/h (4 Bft) W-SW 0,00 h 0 W/m 12,3 C 8,6 C 21,5 km/h (4 Bft)
09.05.2012 09:00 14,6 C 90 % 1008,5 hPa 0,0 l/m 13,9 km/h (3 Bft) W-SW 0,00 h 0 W/m 13,0 C 11,1 C 13,9 km/h (3 Bft)
09.05.2012 10:00 14,6 C 90 % 1008,5 hPa 2,1 l/m 11,6 km/h (2 Bft) SW 0,00 h 0 W/m 13,0 C 12,1 C 11,6 km/h (2 Bft)
09.05.2012 11:00 14,6 C 91 % 1008,5 hPa 3,6 l/m 14,0 km/h (3 Bft) SW 0,00 h 0 W/m 13,1 C 11,1 C 14,0 km/h (3 Bft)
09.05.2012 12:00 14,6 C 92 % 1009,5 hPa 2,7 l/m 15,3 km/h (3 Bft) SW 0,00 h 0 W/m 13,3 C 10,7 C 15,3 km/h (3 Bft)
09.05.2012 13:00 15,7 C 92 % 1009,5 hPa 0,6 l/m 27,3 km/h (5 Bft) W 0,00 h 0 W/m 14,5 C 9,2 C 27,3 km/h (5 Bft)
09.05.2012 14:00 17,7 C 85 % 1009,5 hPa 0,0 l/m 23,4 km/h (4 Bft) W 0,00 h 0 W/m 15,1 C 12,5 C 23,4 km/h (4 Bft)
09.05.2012 15:00 18,0 C 79 % 1010,5 hPa 0,0 l/m 18,8 km/h (3 Bft) W 0,00 h 0 W/m 14,2 C 13,9 C 18,8 km/h (3 Bft)
09.05.2012 16:00 18,2 C 77 % 1010,8 hPa 0,0 l/m 15,8 km/h (3 Bft) NW 0,00 h 0 W/m 14,2 C 14,9 C 15,8 km/h (3 Bft)
09.05.2012 17:00 17,3 C 78 % 1011,5 hPa 0,0 l/m 13,6 km/h (3 Bft) N-NW 0,00 h 0 W/m 13,3 C 14,4 C 13,6 km/h (3 Bft)
09.05.2012 18:00 16,1 C 76 % 1011,8 hPa 0,0 l/m 9,4 km/h (2 Bft) N 0,00 h 0 W/m 11,9 C 14,6 C 9,4 km/h (2 Bft)
09.05.2012 19:00 15,3 C 76 % 1012,5 hPa 0,0 l/m 7,2 km/h (2 Bft) N-NO 0,00 h 0 W/m 11,2 C 14,8 C 7,2 km/h (2 Bft)
09.05.2012 20:00 14,8 C 78 % 1012,5 hPa 0,0 l/m 2,8 km/h (1 Bft) N 0,00 h 0 W/m 11,1 C 14,8 C 2,8 km/h (1 Bft)
09.05.2012 21:00 14,1 C 80 % 1012,8 hPa 0,0 l/m 0,0 km/h (0 Bft) N 0,00 h 0 W/m 10,7 C 14,1 C 0,0 km/h (0 Bft)
09.05.2012 22:00 13,9 C 82 % 1013,3 hPa 0,3 l/m 1,8 km/h (1 Bft) N-NW 0,00 h 0 W/m 10,9 C 13,8 C 1,8 km/h (1 Bft)
09.05.2012 23:00 13,7 C 85 % 1013,5 hPa 0,3 l/m 6,1 km/h (2 Bft) S-SO 0,00 h 0 W/m 11,1 C 13,0 C 6,1 km/h (2 Bft)
10.05.2012 00:00 13,3 C 87 % 1014,3 hPa 0,0 l/m 8,8 km/h (2 Bft) S 0,00 h 0 W/m 11,1 C 11,9 C 8,8 km/h (2 Bft)
10.05.2012 01:00 13,7 C 89 % 1014,5 hPa 0,3 l/m 10,6 km/h (2 Bft) W-SW 0,00 h 0 W/m 11,8 C 11,4 C 10,6 km/h (2 Bft)
10.05.2012 02:00 13,9 C 90 % 1014,5 hPa 0,0 l/m 10,9 km/h (2 Bft) S-SW 0,00 h 0 W/m 12,3 C 11,5 C 10,9 km/h (2 Bft)
10.05.2012 03:00 14,0 C 91 % 1013,8 hPa 0,0 l/m 11,7 km/h (2 Bft) SW 0,00 h 0 W/m 12,6 C 11,3 C 11,7 km/h (2 Bft)
10.05.2012 04:00 14,0 C 91 % 1013,5 hPa 0,0 l/m 10,8 km/h (2 Bft) S-SO 0,00 h 0 W/m 12,6 C 11,7 C 10,8 km/h (2 Bft)
10.05.2012 05:00 13,9 C 92 % 1013,5 hPa 0,3 l/m 12,5 km/h (2 Bft) S 0,00 h 0 W/m 12,7 C 10,9 C 12,5 km/h (2 Bft)
10.05.2012 06:00 14,0 C 93 % 1012,8 hPa 0,0 l/m 16,2 km/h (3 Bft) S 0,00 h 0 W/m 12,9 C 9,6 C 16,2 km/h (3 Bft)
10.05.2012 07:00 14,4 C 93 % 1012,5 hPa 0,3 l/m 14,6 km/h (3 Bft) S-SW 0,00 h 0 W/m 13,2 C 10,6 C 14,6 km/h (3 Bft)
10.05.2012 08:00 14,9 C 93 % 1012,5 hPa 0,0 l/m 15,2 km/h (3 Bft) S 0,00 h 0 W/m 13,8 C 11,0 C 15,2 km/h (3 Bft)
10.05.2012 09:00 15,6 C 93 % 1012,5 hPa 0,3 l/m 22,2 km/h (4 Bft) S-SW 0,00 h 0 W/m 14,5 C 10,0 C 22,2 km/h (4 Bft)
10.05.2012 10:00 16,1 C 93 % 1012,5 hPa 0,9 l/m 23,8 km/h (4 Bft) SW 0,00 h 0 W/m 15,0 C 10,4 C 23,8 km/h (4 Bft)
10.05.2012 11:00 16,4 C 93 % 1011,8 hPa 0,9 l/m 28,8 km/h (5 Bft) SW 0,00 h 0 W/m 15,2 C 9,8 C 28,8 km/h (5 Bft)
10.05.2012 12:00 16,7 C 93 % 1011,5 hPa 0,6 l/m 27,8 km/h (5 Bft) SW 0,00 h 0 W/m 15,6 C 10,5 C 27,8 km/h (5 Bft)
10.05.2012 13:00 17,8 C 93 % 1011,5 hPa 0,0 l/m 34,4 km/h (5 Bft) SW 0,00 h 0 W/m 16,7 C 11,1 C 34,4 km/h (5 Bft)
10.05.2012 14:00 19,0 C 88 % 1011,3 hPa 0,3 l/m 35,6 km/h (5 Bft) SW 0,00 h 0 W/m 17,0 C 12,6 C 35,6 km/h (5 Bft)
10.05.2012 15:00 18,6 C 88 % 1011,5 hPa 0,0 l/m 30,0 km/h (5 Bft) W-SW 0,00 h 0 W/m 16,6 C 12,7 C 30,0 km/h (5 Bft)
10.05.2012 16:00 18,5 C 87 % 1011,5 hPa 0,3 l/m 30,7 km/h (5 Bft) W-SW 0,00 h 0 W/m 16,2 C 12,5 C 30,7 km/h (5 Bft)
10.05.2012 17:00 18,6 C 86 % 1011,5 hPa 0,0 l/m 28,3 km/h (5 Bft) W 0,00 h 0 W/m 16,1 C 13,0 C 28,3 km/h (5 Bft)
10.05.2012 18:00 18,8 C 85 % 1011,5 hPa 0,0 l/m 24,6 km/h (4 Bft) W 0,00 h 0 W/m 16,2 C 13,8 C 24,6 km/h (4 Bft)
10.05.2012 19:00 19,5 C 84 % 1011,5 hPa 0,0 l/m 25,8 km/h (4 Bft) W-SW 0,00 h 0 W/m 16,6 C 14,6 C 25,8 km/h (4 Bft)
10.05.2012 20:00 19,2 C 84 % 1011,5 hPa 0,0 l/m 25,4 km/h (4 Bft) W-SW 0,00 h 0 W/m 16,3 C 14,2 C 25,4 km/h (4 Bft)
10.05.2012 21:00 18,7 C 88 % 1010,8 hPa 0,6 l/m 21,8 km/h (4 Bft) SW 0,00 h 0 W/m 16,6 C 14,2 C 21,8 km/h (4 Bft)
10.05.2012 22:00 17,6 C 90 % 1011,5 hPa 2,4 l/m 28,0 km/h (5 Bft) W 0,00 h 0 W/m 15,8 C 11,7 C 28,0 km/h (5 Bft)
10.05.2012 23:00 15,8 C 91 % 1011,8 hPa 0,0 l/m 16,7 km/h (3 Bft) W-SW 0,00 h 0 W/m 14,2 C 11,7 C 16,7 km/h (3 Bft)
11.05.2012 00:00 16,1 C 91 % 1011,5 hPa 0,0 l/m 15,1 km/h (3 Bft) S-SW 0,00 h 0 W/m 14,6 C 12,5 C 15,1 km/h (3 Bft)
11.05.2012 01:00 16,8 C 93 % 1011,5 hPa 0,0 l/m 18,8 km/h (3 Bft) SW 0,00 h 0 W/m 15,6 C 12,4 C 18,8 km/h (3 Bft)
11.05.2012 02:00 17,7 C 94 % 1011,3 hPa 0,0 l/m 29,2 km/h (5 Bft) W-SW 0,00 h 0 W/m 16,7 C 11,6 C 29,2 km/h (5 Bft)
11.05.2012 03:00 17,4 C 92 % 1011,5 hPa 0,0 l/m 32,4 km/h (5 Bft) W 0,00 h 0 W/m 16,0 C 10,8 C 32,4 km/h (5 Bft)
11.05.2012 04:00 16,1 C 90 % 1011,8 hPa 0,0 l/m 21,3 km/h (4 Bft) W 0,00 h 0 W/m 14,4 C 10,8 C 21,3 km/h (4 Bft)
11.05.2012 05:00 15,6 C 90 % 1011,8 hPa 0,0 l/m 19,2 km/h (3 Bft) W 0,00 h 0 W/m 14,0 C 10,8 C 19,2 km/h (3 Bft)
11.05.2012 06:00 15,7 C 90 % 1012,5 hPa 0,0 l/m 23,7 km/h (4 Bft) W-SW 0,00 h 0 W/m 14,1 C 9,9 C 23,7 km/h (4 Bft)
11.05.2012 07:00 16,1 C 88 % 1012,5 hPa 0,0 l/m 30,1 km/h (5 Bft) W-SW 0,00 h 0 W/m 14,1 C 9,3 C 30,1 km/h (5 Bft)
11.05.2012 08:00 16,5 C 87 % 1012,5 hPa 0,0 l/m 32,0 km/h (5 Bft) W-SW 0,00 h 0 W/m 14,3 C 9,5 C 32,0 km/h (5 Bft)
11.05.2012 09:00 17,0 C 85 % 1013,3 hPa 0,0 l/m 33,7 km/h (5 Bft) W-SW 0,00 h 0 W/m 14,4 C 10,0 C 33,7 km/h (5 Bft)
11.05.2012 10:00 17,5 C 81 % 1013,5 hPa 0,0 l/m 35,2 km/h (5 Bft) W 0,00 h 0 W/m 14,1 C 10,5 C 35,2 km/h (5 Bft)
11.05.2012 11:00 18,7 C 75 % 1013,5 hPa 0,3 l/m 33,3 km/h (5 Bft) W 0,00 h 0 W/m 14,0 C 12,5 C 33,3 km/h (5 Bft)
11.05.2012 12:00 19,6 C 67 % 1014,5 hPa 0,0 l/m 38,7 km/h (6 Bft) W-NW 0,00 h 0 W/m 13,3 C 13,4 C 38,7 km/h (6 Bft)
11.05.2012 13:00 19,4 C 66 % 1014,8 hPa 0,0 l/m 40,2 km/h (6 Bft) NW 0,00 h 0 W/m 12,8 C 12,9 C 40,2 km/h (6 Bft)
11.05.2012 14:00 15,4 C 73 % 1016,0 hPa 0,0 l/m 39,0 km/h (6 Bft) NW 0,00 h 0 W/m 10,6 C 7,0 C 39,0 km/h (6 Bft)
11.05.2012 15:00 15,3 C 71 % 1016,5 hPa 0,0 l/m 38,8 km/h (6 Bft) NW 0,00 h 0 W/m 10,0 C 6,8 C 38,8 km/h (6 Bft)
11.05.2012 16:00 14,9 C 72 % 1017,3 hPa 0,0 l/m 38,0 km/h (6 Bft) NW 0,00 h 0 W/m 9,9 C 6,4 C 38,0 km/h (6 Bft)
11.05.2012 17:00 14,3 C 73 % 1018,0 hPa 0,0 l/m 37,9 km/h (6 Bft) W-NW 0,00 h 0 W/m 9,5 C 5,6 C 37,9 km/h (6 Bft)
11.05.2012 18:00 13,6 C 74 % 1018,5 hPa 0,0 l/m 33,6 km/h (5 Bft) NW 0,00 h 0 W/m 9,1 C 5,2 C 33,6 km/h (5 Bft)
11.05.2012 19:00 13,1 C 73 % 1018,5 hPa 0,0 l/m 34,4 km/h (5 Bft) NW 0,00 h 0 W/m 8,3 C 4,4 C 34,4 km/h (5 Bft)
11.05.2012 20:00 12,4 C 72 % 1019,3 hPa 0,0 l/m 40,5 km/h (6 Bft) NW 0,00 h 0 W/m 7,4 C 2,3 C 40,5 km/h (6 Bft)
11.05.2012 21:00 11,3 C 76 % 1020,0 hPa 0,0 l/m 41,0 km/h (6 Bft) NW 0,00 h 0 W/m 7,2 C 0,7 C 41,0 km/h (6 Bft)
11.05.2012 22:00 10,4 C 77 % 1021,0 hPa 0,0 l/m 33,0 km/h (5 Bft) N-NW 0,00 h 0 W/m 6,6 C 0,8 C 33,0 km/h (5 Bft)
11.05.2012 23:00 9,8 C 79 % 1022,0 hPa 0,0 l/m 29,7 km/h (5 Bft) NW 0,00 h 0 W/m 6,3 C 0,4 C 29,7 km/h (5 Bft)
12.05.2012 00:00 9,4 C 78 % 1022,5 hPa 0,0 l/m 30,8 km/h (5 Bft) NW 0,00 h 0 W/m 5,9 C -0,3 C 30,8 km/h (5 Bft)
12.05.2012 01:00 9,4 C 78 % 1022,8 hPa 0,0 l/m 31,4 km/h (5 Bft) NW 0,00 h 0 W/m 5,7 C -0,5 C 31,4 km/h (5 Bft)
12.05.2012 02:00 9,1 C 75 % 1023,5 hPa 0,0 l/m 32,0 km/h (5 Bft) N-NW 0,00 h 0 W/m 4,9 C -1,0 C 32,0 km/h (5 Bft)
12.05.2012 03:00 8,7 C 70 % 1023,8 hPa 0,0 l/m 35,5 km/h (5 Bft) N-NW 0,00 h 0 W/m 3,5 C -2,3 C 35,5 km/h (5 Bft)
12.05.2012 04:00 8,7 C 69 % 1024,5 hPa 0,0 l/m 32,3 km/h (5 Bft) NW 0,00 h 0 W/m 3,4 C -1,7 C 32,3 km/h (5 Bft)
12.05.2012 05:00 8,6 C 66 % 1025,0 hPa 0,0 l/m 36,3 km/h (5 Bft) N-NW 0,00 h 0 W/m 2,7 C -2,5 C 36,3 km/h (5 Bft)
12.05.2012 06:00 8,7 C 67 % 1025,5 hPa 0,0 l/m 33,8 km/h (5 Bft) N-NW 0,00 h 0 W/m 2,9 C -2,0 C 33,8 km/h (5 Bft)
12.05.2012 07:00 8,8 C 70 % 1026,0 hPa 0,0 l/m 35,5 km/h (5 Bft) N-NW 0,00 h 0 W/m 3,6 C -2,0 C 35,5 km/h (5 Bft)
12.05.2012 08:00 9,2 C 65 % 1026,8 hPa 0,0 l/m 39,7 km/h (6 Bft) N 0,00 h 0 W/m 2,8 C -2,3 C 39,7 km/h (6 Bft)
12.05.2012 09:00 9,5 C 66 % 1027,8 hPa 0,0 l/m 37,1 km/h (5 Bft) N-NW 0,00 h 0 W/m 3,3 C -1,4 C 37,1 km/h (5 Bft)
12.05.2012 10:00 10,0 C 64 % 1028,5 hPa 0,0 l/m 36,5 km/h (5 Bft) N-NW 0,00 h 0 W/m 3,4 C -0,5 C 36,5 km/h (5 Bft)
12.05.2012 11:00 10,8 C 62 % 1028,5 hPa 0,0 l/m 38,2 km/h (6 Bft) NW 0,00 h 0 W/m 3,8 C 0,5 C 38,2 km/h (6 Bft)
12.05.2012 12:00 11,8 C 58 % 1029,3 hPa 0,0 l/m 38,3 km/h (6 Bft) N-NW 0,00 h 0 W/m 3,7 C 1,8 C 38,3 km/h (6 Bft)
12.05.2012 13:00 11,0 C 62 % 1029,5 hPa 0,0 l/m 37,5 km/h (5 Bft) NW 0,00 h 0 W/m 3,9 C 0,8 C 37,5 km/h (5 Bft)
12.05.2012 14:00 11,3 C 64 % 1030,3 hPa 0,0 l/m 37,1 km/h (5 Bft) NW 0,00 h 0 W/m 4,7 C 1,3 C 37,1 km/h (5 Bft)
12.05.2012 15:00 11,0 C 64 % 1030,5 hPa 0,0 l/m 35,8 km/h (5 Bft) N-NW 0,00 h 0 W/m 4,3 C 1,0 C 35,8 km/h (5 Bft)
12.05.2012 16:00 11,1 C 64 % 1030,5 hPa 0,0 l/m 39,2 km/h (6 Bft) N-NW 0,00 h 0 W/m 4,5 C 0,6 C 39,2 km/h (6 Bft)
12.05.2012 17:00 10,6 C 64 % 1031,3 hPa 0,0 l/m 39,0 km/h (6 Bft) N 0,00 h 0 W/m 4,0 C -0,1 C 39,0 km/h (6 Bft)
12.05.2012 18:00 10,1 C 65 % 1031,5 hPa 0,0 l/m 32,3 km/h (5 Bft) N-NO 0,00 h 0 W/m 3,7 C 0,3 C 32,3 km/h (5 Bft)
12.05.2012 19:00 9,7 C 66 % 1031,5 hPa 0,0 l/m 33,2 km/h (5 Bft) N-NW 0,00 h 0 W/m 3,6 C -0,4 C 33,2 km/h (5 Bft)
12.05.2012 20:00 9,2 C 68 % 1031,5 hPa 0,0 l/m 33,8 km/h (5 Bft) N-NW 0,00 h 0 W/m 3,7 C -1,2 C 33,8 km/h (5 Bft)
12.05.2012 21:00 8,8 C 72 % 1031,5 hPa 0,0 l/m 31,1 km/h (5 Bft) N 0,00 h 0 W/m 4,0 C -1,2 C 31,1 km/h (5 Bft)
12.05.2012 22:00 8,7 C 71 % 1032,0 hPa 0,0 l/m 28,8 km/h (5 Bft) N-NW 0,00 h 0 W/m 3,7 C -0,9 C 28,8 km/h (5 Bft)
12.05.2012 23:00 8,8 C 71 % 1031,8 hPa 0,0 l/m 29,2 km/h (5 Bft) N-NW 0,00 h 0 W/m 3,7 C -0,9 C 29,2 km/h (5 Bft)
13.05.2012 00:00 8,7 C 70 % 1031,8 hPa 0,0 l/m 29,4 km/h (5 Bft) N 0,00 h 0 W/m 3,4 C -1,1 C 29,4 km/h (5 Bft)
13.05.2012 01:00 8,4 C 70 % 1031,5 hPa 0,0 l/m 24,5 km/h (4 Bft) N 0,00 h 0 W/m 3,2 C -0,1 C 24,5 km/h (4 Bft)
13.05.2012 02:00 8,2 C 72 % 1031,5 hPa 0,0 l/m 22,0 km/h (4 Bft) N-NW 0,00 h 0 W/m 3,4 C 0,4 C 22,0 km/h (4 Bft)
13.05.2012 03:00 8,0 C 72 % 1027,3 hPa 0,0 l/m 21,2 km/h (4 Bft) NW 0,00 h 0 W/m 3,3 C 0,3 C 21,2 km/h (4 Bft)
13.05.2012 04:00 7,7 C 73 % 1031,3 hPa 0,0 l/m 18,4 km/h (3 Bft) NW 0,00 h 0 W/m 3,2 C 1,0 C 18,4 km/h (3 Bft)
13.05.2012 05:00 7,7 C 73 % 1030,5 hPa 0,0 l/m 18,5 km/h (3 Bft) NW 0,00 h 0 W/m 3,1 C 0,9 C 18,5 km/h (3 Bft)
13.05.2012 06:00 7,7 C 73 % 1030,5 hPa 0,0 l/m 19,0 km/h (3 Bft) NW 0,00 h 0 W/m 3,1 C 0,7 C 19,0 km/h (3 Bft)
13.05.2012 07:00 8,2 C 71 % 1030,5 hPa 0,0 l/m 20,3 km/h (4 Bft) NW 0,00 h 0 W/m 3,2 C 0,9 C 20,3 km/h (4 Bft)
13.05.2012 08:00 8,7 C 71 % 1030,5 hPa 0,0 l/m 16,6 km/h (3 Bft) NW 0,00 h 0 W/m 3,8 C 2,9 C 16,6 km/h (3 Bft)
13.05.2012 09:00 9,4 C 72 % 1030,5 hPa 0,0 l/m 21,0 km/h (4 Bft) NW 0,00 h 0 W/m 4,5 C 2,2 C 21,0 km/h (4 Bft)
13.05.2012 10:00 10,3 C 70 % 1030,5 hPa 0,0 l/m 22,5 km/h (4 Bft) NW 0,00 h 0 W/m 4,9 C 2,9 C 22,5 km/h (4 Bft)
13.05.2012 11:00 12,2 C 62 % 1030,3 hPa 0,0 l/m 22,1 km/h (4 Bft) NW 0,00 h 0 W/m 5,1 C 5,6 C 22,1 km/h (4 Bft)
13.05.2012 12:00 13,6 C 55 % 1030,3 hPa 0,0 l/m 20,5 km/h (4 Bft) W-NW 0,00 h 0 W/m 4,8 C 7,9 C 20,5 km/h (4 Bft)
13.05.2012 13:00 14,5 C 53 % 1029,5 hPa 0,0 l/m 18,5 km/h (3 Bft) NW 0,00 h 0 W/m 4,9 C 9,6 C 18,5 km/h (3 Bft)
13.05.2012 14:00 14,6 C 55 % 1028,8 hPa 0,0 l/m 19,7 km/h (3 Bft) NW 0,00 h 0 W/m 5,6 C 9,4 C 19,7 km/h (3 Bft)
13.05.2012 15:00 15,2 C 51 % 1028,5 hPa 0,0 l/m 21,3 km/h (4 Bft) NW 0,00 h 0 W/m 5,0 C 9,7 C 21,3 km/h (4 Bft)
13.05.2012 16:00 15,1 C 48 % 1027,5 hPa 0,0 l/m 17,0 km/h (3 Bft) NW 0,00 h 0 W/m 4,0 C 10,7 C 17,0 km/h (3 Bft)
13.05.2012 17:00 14,9 C 48 % 1027,0 hPa 0,0 l/m 13,3 km/h (3 Bft) W-NW 0,00 h 0 W/m 4,0 C 11,7 C 13,3 km/h (3 Bft)
13.05.2012 18:00 14,0 C 53 % 1026,0 hPa 0,0 l/m 13,0 km/h (3 Bft) W 0,00 h 0 W/m 4,5 C 10,8 C 13,0 km/h (3 Bft)
13.05.2012 19:00 13,3 C 56 % 1025,3 hPa 0,0 l/m 11,1 km/h (2 Bft) W-SW 0,00 h 0 W/m 4,7 C 10,8 C 11,1 km/h (2 Bft)
13.05.2012 20:00 12,6 C 60 % 1024,5 hPa 0,0 l/m 4,6 km/h (1 Bft) W-SW 0,00 h 0 W/m 5,0 C 12,3 C 4,6 km/h (1 Bft)
13.05.2012 21:00 11,3 C 64 % 1024,5 hPa 0,0 l/m 0,0 km/h (0 Bft) S-SW 0,00 h 0 W/m 4,7 C 11,3 C 0,0 km/h (0 Bft)
13.05.2012 22:00 10,9 C 67 % 1023,8 hPa 0,0 l/m 7,6 km/h (2 Bft) S-SW 0,00 h 0 W/m 4,9 C 9,9 C 7,6 km/h (2 Bft)
13.05.2012 23:00 10,8 C 65 % 1023,0 hPa 0,0 l/m 13,4 km/h (3 Bft) SW 0,00 h 0 W/m 4,5 C 6,8 C 13,4 km/h (3 Bft)
Min-Datum _ 08.05.12 13.05.12 08.05.12 - 07.05.12 - - - 07.05.12 12.05.12 07.05.12
_ Min-Zeit 06:01 16:45 23:30 - 09:16 - - - 00:00 07:00 09:16
Minimum _ 5,5 C 44 % 1007,5 hPa - 0,0 km/h (0 Bft) - - - 2,2 C -3,4 C 0,0 km/h (0 Bft)
Max-Datum _ 11.05.12 10.05.12 12.05.12 09.05.12 11.05.12 - 07.05.12 07.05.12 10.05.12 08.05.12 11.05.12
_ Max-Zeit 13:15 12:30 22:15 11:30 12:45 - 00:00 00:00 13:45 18:45 12:45
Maximum _ 20,4 C 94 % 1032,5 hPa 3,6 l/m 50,0 km/h
W-NW (7 Bft)
- 0,00 h 0 W/m 17,5 C 16,9 C 50,0 km/h
W-NW (7 Bft)
Durchschnitt _ 12,6 C 76 % 1017,7 hPa #20,4 l/m 19,3 km/h (3 Bft) NW #0 min. 0 W/m 8,2 C 7,7 C 19,3 km/h (3 Bft)
copyright by Holger Just